sensor_id;sensor_type;location;lat;lon;timestamp;P1;durP1;ratioP1;P2;durP2;ratioP2
17743;SDS011;8994;48.934;9.526;2022-07-06T00:00:52;1.57;;;1.47;;
17743;SDS011;8994;48.934;9.526;2022-07-06T00:03:18;1.80;;;1.70;;
17743;SDS011;8994;48.934;9.526;2022-07-06T00:05:44;2.70;;;1.60;;
17743;SDS011;8994;48.934;9.526;2022-07-06T00:08:09;1.60;;;1.50;;
17743;SDS011;8994;48.934;9.526;2022-07-06T00:10:35;1.50;;;1.40;;
17743;SDS011;8994;48.934;9.526;2022-07-06T00:13:01;1.70;;;1.60;;
17743;SDS011;8994;48.934;9.526;2022-07-06T00:15:27;1.53;;;1.43;;
17743;SDS011;8994;48.934;9.526;2022-07-06T00:17:53;1.90;;;1.80;;
17743;SDS011;8994;48.934;9.526;2022-07-06T00:20:19;1.57;;;1.47;;
17743;SDS011;8994;48.934;9.526;2022-07-06T00:22:45;1.50;;;1.50;;
17743;SDS011;8994;48.934;9.526;2022-07-06T00:25:11;4.00;;;1.80;;
17743;SDS011;8994;48.934;9.526;2022-07-06T00:27:36;1.70;;;1.60;;
17743;SDS011;8994;48.934;9.526;2022-07-06T00:30:02;4.47;;;1.60;;
17743;SDS011;8994;48.934;9.526;2022-07-06T00:32:28;1.57;;;1.50;;
17743;SDS011;8994;48.934;9.526;2022-07-06T00:34:54;2.03;;;1.80;;
17743;SDS011;8994;48.934;9.526;2022-07-06T00:37:19;2.50;;;1.47;;
17743;SDS011;8994;48.934;9.526;2022-07-06T00:39:45;1.70;;;1.60;;
17743;SDS011;8994;48.934;9.526;2022-07-06T00:42:11;2.23;;;1.67;;
17743;SDS011;8994;48.934;9.526;2022-07-06T00:44:36;1.90;;;1.73;;
17743;SDS011;8994;48.934;9.526;2022-07-06T00:47:03;2.70;;;1.93;;
17743;SDS011;8994;48.934;9.526;2022-07-06T00:49:28;1.60;;;1.50;;
17743;SDS011;8994;48.934;9.526;2022-07-06T00:52:12;3.07;;;1.90;;
17743;SDS011;8994;48.934;9.526;2022-07-06T00:54:39;1.60;;;1.50;;
17743;SDS011;8994;48.934;9.526;2022-07-06T00:57:06;4.63;;;2.13;;
17743;SDS011;8994;48.934;9.526;2022-07-06T00:59:32;2.27;;;2.00;;
17743;SDS011;8994;48.934;9.526;2022-07-06T01:01:58;1.60;;;1.50;;
17743;SDS011;8994;48.934;9.526;2022-07-06T01:04:23;4.47;;;1.77;;
17743;SDS011;8994;48.934;9.526;2022-07-06T01:06:49;2.43;;;1.77;;
17743;SDS011;8994;48.934;9.526;2022-07-06T01:09:16;4.60;;;1.90;;
17743;SDS011;8994;48.934;9.526;2022-07-06T01:11:42;1.70;;;1.60;;
17743;SDS011;8994;48.934;9.526;2022-07-06T01:14:09;4.47;;;1.90;;
17743;SDS011;8994;48.934;9.526;2022-07-06T01:16:35;1.93;;;1.83;;
17743;SDS011;8994;48.934;9.526;2022-07-06T01:19:01;2.17;;;1.97;;
17743;SDS011;8994;48.934;9.526;2022-07-06T01:21:27;2.07;;;1.70;;
17743;SDS011;8994;48.934;9.526;2022-07-06T01:23:53;1.93;;;1.83;;
17743;SDS011;8994;48.934;9.526;2022-07-06T01:26:19;3.40;;;1.90;;
17743;SDS011;8994;48.934;9.526;2022-07-06T01:28:46;2.37;;;1.80;;
17743;SDS011;8994;48.934;9.526;2022-07-06T01:31:25;1.60;;;1.60;;
17743;SDS011;8994;48.934;9.526;2022-07-06T01:33:52;5.03;;;1.90;;
17743;SDS011;8994;48.934;9.526;2022-07-06T01:36:20;3.87;;;2.00;;
17743;SDS011;8994;48.934;9.526;2022-07-06T01:38:50;4.10;;;1.93;;
17743;SDS011;8994;48.934;9.526;2022-07-06T01:41:17;3.03;;;1.80;;
17743;SDS011;8994;48.934;9.526;2022-07-06T01:43:44;1.80;;;1.70;;
17743;SDS011;8994;48.934;9.526;2022-07-06T01:46:10;3.73;;;2.03;;
17743;SDS011;8994;48.934;9.526;2022-07-06T01:48:36;1.93;;;1.83;;
17743;SDS011;8994;48.934;9.526;2022-07-06T01:51:03;2.43;;;2.00;;
17743;SDS011;8994;48.934;9.526;2022-07-06T01:53:29;3.63;;;1.87;;
17743;SDS011;8994;48.934;9.526;2022-07-06T01:55:55;3.93;;;2.00;;
17743;SDS011;8994;48.934;9.526;2022-07-06T01:58:21;1.83;;;1.73;;
17743;SDS011;8994;48.934;9.526;2022-07-06T02:00:46;2.17;;;2.00;;
17743;SDS011;8994;48.934;9.526;2022-07-06T02:03:12;3.93;;;1.93;;
17743;SDS011;8994;48.934;9.526;2022-07-06T02:05:38;1.70;;;1.60;;
17743;SDS011;8994;48.934;9.526;2022-07-06T02:08:04;2.23;;;1.90;;
17743;SDS011;8994;48.934;9.526;2022-07-06T02:10:30;2.40;;;1.67;;
17743;SDS011;8994;48.934;9.526;2022-07-06T02:12:55;2.80;;;2.00;;
17743;SDS011;8994;48.934;9.526;2022-07-06T02:15:21;2.40;;;1.80;;
17743;SDS011;8994;48.934;9.526;2022-07-06T02:17:47;4.67;;;2.00;;
17743;SDS011;8994;48.934;9.526;2022-07-06T02:20:13;2.10;;;1.90;;
17743;SDS011;8994;48.934;9.526;2022-07-06T02:22:38;2.53;;;2.03;;
17743;SDS011;8994;48.934;9.526;2022-07-06T02:25:04;4.20;;;2.10;;
17743;SDS011;8994;48.934;9.526;2022-07-06T02:27:30;2.20;;;2.00;;
17743;SDS011;8994;48.934;9.526;2022-07-06T02:29:56;1.90;;;1.80;;
17743;SDS011;8994;48.934;9.526;2022-07-06T02:32:22;3.23;;;1.90;;
17743;SDS011;8994;48.934;9.526;2022-07-06T02:34:48;2.23;;;2.03;;
17743;SDS011;8994;48.934;9.526;2022-07-06T02:37:14;1.90;;;1.80;;
17743;SDS011;8994;48.934;9.526;2022-07-06T02:39:40;3.87;;;2.10;;
17743;SDS011;8994;48.934;9.526;2022-07-06T02:42:05;2.10;;;1.90;;
17743;SDS011;8994;48.934;9.526;2022-07-06T02:44:31;2.90;;;2.07;;
17743;SDS011;8994;48.934;9.526;2022-07-06T02:46:57;2.03;;;1.93;;
17743;SDS011;8994;48.934;9.526;2022-07-06T02:49:22;2.53;;;1.60;;
17743;SDS011;8994;48.934;9.526;2022-07-06T02:51:48;2.47;;;2.10;;
17743;SDS011;8994;48.934;9.526;2022-07-06T02:54:14;3.13;;;2.17;;
17743;SDS011;8994;48.934;9.526;2022-07-06T02:56:40;2.50;;;2.30;;
17743;SDS011;8994;48.934;9.526;2022-07-06T02:59:05;2.30;;;2.00;;
17743;SDS011;8994;48.934;9.526;2022-07-06T03:01:31;2.17;;;2.07;;
17743;SDS011;8994;48.934;9.526;2022-07-06T03:03:57;2.53;;;2.30;;
17743;SDS011;8994;48.934;9.526;2022-07-06T03:06:22;2.17;;;2.07;;
17743;SDS011;8994;48.934;9.526;2022-07-06T03:08:48;2.17;;;1.90;;
17743;SDS011;8994;48.934;9.526;2022-07-06T03:11:14;2.50;;;2.30;;
17743;SDS011;8994;48.934;9.526;2022-07-06T03:13:39;2.00;;;1.90;;
17743;SDS011;8994;48.934;9.526;2022-07-06T03:16:05;4.97;;;2.27;;
17743;SDS011;8994;48.934;9.526;2022-07-06T03:18:31;2.30;;;2.10;;
17743;SDS011;8994;48.934;9.526;2022-07-06T03:20:56;2.67;;;2.47;;
17743;SDS011;8994;48.934;9.526;2022-07-06T03:23:22;2.40;;;2.20;;
17743;SDS011;8994;48.934;9.526;2022-07-06T03:25:48;3.23;;;2.50;;
17743;SDS011;8994;48.934;9.526;2022-07-06T03:28:14;3.13;;;2.50;;
17743;SDS011;8994;48.934;9.526;2022-07-06T03:30:39;4.03;;;2.40;;
17743;SDS011;8994;48.934;9.526;2022-07-06T03:33:05;4.93;;;2.63;;
17743;SDS011;8994;48.934;9.526;2022-07-06T03:35:31;2.57;;;2.47;;
17743;SDS011;8994;48.934;9.526;2022-07-06T03:37:57;2.60;;;2.40;;
17743;SDS011;8994;48.934;9.526;2022-07-06T03:40:22;2.30;;;2.10;;
17743;SDS011;8994;48.934;9.526;2022-07-06T03:42:48;4.50;;;2.43;;
17743;SDS011;8994;48.934;9.526;2022-07-06T03:45:14;5.07;;;2.30;;
17743;SDS011;8994;48.934;9.526;2022-07-06T03:47:39;2.37;;;2.17;;
17743;SDS011;8994;48.934;9.526;2022-07-06T03:50:05;2.57;;;2.20;;
17743;SDS011;8994;48.934;9.526;2022-07-06T03:52:33;2.80;;;2.27;;
17743;SDS011;8994;48.934;9.526;2022-07-06T03:55:00;2.47;;;2.27;;
17743;SDS011;8994;48.934;9.526;2022-07-06T03:57:25;3.77;;;3.47;;
17743;SDS011;8994;48.934;9.526;2022-07-06T03:59:51;6.40;;;5.30;;
17743;SDS011;8994;48.934;9.526;2022-07-06T04:02:17;6.87;;;4.40;;
17743;SDS011;8994;48.934;9.526;2022-07-06T04:04:43;6.37;;;4.17;;
17743;SDS011;8994;48.934;9.526;2022-07-06T04:07:08;5.00;;;4.20;;
17743;SDS011;8994;48.934;9.526;2022-07-06T04:09:34;3.03;;;2.70;;
17743;SDS011;8994;48.934;9.526;2022-07-06T04:12:00;4.63;;;3.00;;
17743;SDS011;8994;48.934;9.526;2022-07-06T04:14:26;4.10;;;3.00;;
17743;SDS011;8994;48.934;9.526;2022-07-06T04:16:52;6.00;;;3.33;;
17743;SDS011;8994;48.934;9.526;2022-07-06T04:19:18;6.00;;;3.93;;
17743;SDS011;8994;48.934;9.526;2022-07-06T04:21:43;5.73;;;5.33;;
17743;SDS011;8994;48.934;9.526;2022-07-06T04:24:09;6.27;;;5.77;;
17743;SDS011;8994;48.934;9.526;2022-07-06T04:26:35;11.57;;;10.57;;
17743;SDS011;8994;48.934;9.526;2022-07-06T04:29:00;11.80;;;9.57;;
17743;SDS011;8994;48.934;9.526;2022-07-06T04:31:26;8.40;;;7.70;;
17743;SDS011;8994;48.934;9.526;2022-07-06T04:33:52;9.17;;;8.37;;
17743;SDS011;8994;48.934;9.526;2022-07-06T04:36:18;8.37;;;7.57;;
17743;SDS011;8994;48.934;9.526;2022-07-06T04:38:43;7.43;;;6.83;;
17743;SDS011;8994;48.934;9.526;2022-07-06T04:41:12;7.50;;;6.90;;
17743;SDS011;8994;48.934;9.526;2022-07-06T04:43:38;6.37;;;5.37;;
17743;SDS011;8994;48.934;9.526;2022-07-06T04:46:04;6.57;;;5.63;;
17743;SDS011;8994;48.934;9.526;2022-07-06T04:48:30;5.63;;;5.07;;
17743;SDS011;8994;48.934;9.526;2022-07-06T04:50:57;6.00;;;5.40;;
17743;SDS011;8994;48.934;9.526;2022-07-06T04:53:23;5.83;;;5.33;;
17743;SDS011;8994;48.934;9.526;2022-07-06T04:55:49;5.53;;;5.03;;
17743;SDS011;8994;48.934;9.526;2022-07-06T04:58:14;6.10;;;5.10;;
17743;SDS011;8994;48.934;9.526;2022-07-06T05:00:40;5.67;;;5.27;;
17743;SDS011;8994;48.934;9.526;2022-07-06T05:03:06;6.43;;;5.53;;
17743;SDS011;8994;48.934;9.526;2022-07-06T05:05:31;5.23;;;4.33;;
17743;SDS011;8994;48.934;9.526;2022-07-06T05:07:57;4.40;;;4.10;;
17743;SDS011;8994;48.934;9.526;2022-07-06T05:10:23;4.40;;;4.10;;
17743;SDS011;8994;48.934;9.526;2022-07-06T05:12:49;5.80;;;4.13;;
17743;SDS011;8994;48.934;9.526;2022-07-06T05:15:14;4.47;;;4.07;;
17743;SDS011;8994;48.934;9.526;2022-07-06T05:17:40;3.93;;;3.70;;
17743;SDS011;8994;48.934;9.526;2022-07-06T05:20:06;3.50;;;3.20;;
17743;SDS011;8994;48.934;9.526;2022-07-06T05:22:32;3.03;;;2.83;;
17743;SDS011;8994;48.934;9.526;2022-07-06T05:24:58;3.33;;;2.67;;
17743;SDS011;8994;48.934;9.526;2022-07-06T05:27:23;3.43;;;2.30;;
17743;SDS011;8994;48.934;9.526;2022-07-06T05:29:49;2.40;;;2.20;;
17743;SDS011;8994;48.934;9.526;2022-07-06T05:32:15;4.90;;;2.53;;
17743;SDS011;8994;48.934;9.526;2022-07-06T05:34:41;3.50;;;2.30;;
17743;SDS011;8994;48.934;9.526;2022-07-06T05:37:06;2.50;;;2.30;;
17743;SDS011;8994;48.934;9.526;2022-07-06T05:39:32;2.33;;;2.23;;
17743;SDS011;8994;48.934;9.526;2022-07-06T05:41:58;2.50;;;2.30;;
17743;SDS011;8994;48.934;9.526;2022-07-06T05:44:24;2.30;;;2.10;;
17743;SDS011;8994;48.934;9.526;2022-07-06T05:46:49;7.53;;;2.40;;
17743;SDS011;8994;48.934;9.526;2022-07-06T05:49:15;3.40;;;2.47;;
17743;SDS011;8994;48.934;9.526;2022-07-06T05:51:59;2.63;;;2.17;;
17743;SDS011;8994;48.934;9.526;2022-07-06T05:54:25;2.20;;;2.10;;
17743;SDS011;8994;48.934;9.526;2022-07-06T05:56:51;3.53;;;2.40;;
17743;SDS011;8994;48.934;9.526;2022-07-06T05:59:16;2.33;;;2.17;;
17743;SDS011;8994;48.934;9.526;2022-07-06T06:01:42;5.00;;;2.60;;
17743;SDS011;8994;48.934;9.526;2022-07-06T06:04:08;3.53;;;2.47;;
17743;SDS011;8994;48.934;9.526;2022-07-06T06:06:36;7.00;;;2.40;;
17743;SDS011;8994;48.934;9.526;2022-07-06T06:09:02;4.27;;;2.73;;
17743;SDS011;8994;48.934;9.526;2022-07-06T06:11:28;2.30;;;2.20;;
17743;SDS011;8994;48.934;9.526;2022-07-06T06:13:54;2.43;;;2.23;;
17743;SDS011;8994;48.934;9.526;2022-07-06T06:16:20;6.03;;;2.50;;
17743;SDS011;8994;48.934;9.526;2022-07-06T06:18:45;3.07;;;2.17;;
17743;SDS011;8994;48.934;9.526;2022-07-06T06:21:11;5.43;;;2.47;;
17743;SDS011;8994;48.934;9.526;2022-07-06T06:23:37;4.37;;;2.67;;
17743;SDS011;8994;48.934;9.526;2022-07-06T06:26:03;2.50;;;2.30;;
17743;SDS011;8994;48.934;9.526;2022-07-06T06:28:29;2.50;;;2.33;;
17743;SDS011;8994;48.934;9.526;2022-07-06T06:30:55;5.43;;;2.17;;
17743;SDS011;8994;48.934;9.526;2022-07-06T06:33:20;4.97;;;2.60;;
17743;SDS011;8994;48.934;9.526;2022-07-06T06:35:47;3.67;;;2.30;;
17743;SDS011;8994;48.934;9.526;2022-07-06T06:38:15;5.53;;;2.20;;
17743;SDS011;8994;48.934;9.526;2022-07-06T06:40:41;3.67;;;2.23;;
17743;SDS011;8994;48.934;9.526;2022-07-06T06:43:07;5.50;;;2.23;;
17743;SDS011;8994;48.934;9.526;2022-07-06T06:45:33;2.07;;;1.97;;
17743;SDS011;8994;48.934;9.526;2022-07-06T06:47:59;3.83;;;2.47;;
17743;SDS011;8994;48.934;9.526;2022-07-06T06:50:24;2.70;;;2.50;;
17743;SDS011;8994;48.934;9.526;2022-07-06T06:52:50;2.67;;;2.47;;
17743;SDS011;8994;48.934;9.526;2022-07-06T06:55:16;4.80;;;2.23;;
17743;SDS011;8994;48.934;9.526;2022-07-06T06:57:42;2.77;;;2.50;;
17743;SDS011;8994;48.934;9.526;2022-07-06T07:00:09;6.57;;;2.50;;
17743;SDS011;8994;48.934;9.526;2022-07-06T07:02:35;4.43;;;2.77;;
17743;SDS011;8994;48.934;9.526;2022-07-06T07:05:01;3.00;;;2.70;;
17743;SDS011;8994;48.934;9.526;2022-07-06T07:07:28;3.03;;;2.37;;
17743;SDS011;8994;48.934;9.526;2022-07-06T07:09:53;4.50;;;2.50;;
17743;SDS011;8994;48.934;9.526;2022-07-06T07:12:19;2.47;;;2.33;;
17743;SDS011;8994;48.934;9.526;2022-07-06T07:14:45;4.47;;;2.50;;
17743;SDS011;8994;48.934;9.526;2022-07-06T07:17:10;4.03;;;2.47;;
17743;SDS011;8994;48.934;9.526;2022-07-06T07:19:37;3.53;;;3.10;;
17743;SDS011;8994;48.934;9.526;2022-07-06T07:22:03;5.87;;;2.67;;
17743;SDS011;8994;48.934;9.526;2022-07-06T07:24:29;7.47;;;2.77;;
17743;SDS011;8994;48.934;9.526;2022-07-06T07:26:55;6.33;;;3.10;;
17743;SDS011;8994;48.934;9.526;2022-07-06T07:29:21;5.80;;;3.30;;
17743;SDS011;8994;48.934;9.526;2022-07-06T07:31:46;5.60;;;3.20;;
17743;SDS011;8994;48.934;9.526;2022-07-06T07:34:12;4.00;;;3.00;;
17743;SDS011;8994;48.934;9.526;2022-07-06T07:36:39;2.60;;;2.40;;
17743;SDS011;8994;48.934;9.526;2022-07-06T07:39:05;4.50;;;3.23;;
17743;SDS011;8994;48.934;9.526;2022-07-06T07:41:30;3.20;;;2.90;;
17743;SDS011;8994;48.934;9.526;2022-07-06T07:43:56;4.60;;;3.00;;
17743;SDS011;8994;48.934;9.526;2022-07-06T07:46:23;5.20;;;2.73;;
17743;SDS011;8994;48.934;9.526;2022-07-06T07:48:49;4.13;;;2.93;;
17743;SDS011;8994;48.934;9.526;2022-07-06T07:51:14;5.67;;;2.90;;
17743;SDS011;8994;48.934;9.526;2022-07-06T07:53:40;6.20;;;3.03;;
17743;SDS011;8994;48.934;9.526;2022-07-06T07:56:06;6.27;;;3.20;;
17743;SDS011;8994;48.934;9.526;2022-07-06T07:58:32;7.93;;;2.77;;
17743;SDS011;8994;48.934;9.526;2022-07-06T08:00:57;7.37;;;2.77;;
17743;SDS011;8994;48.934;9.526;2022-07-06T08:03:23;2.97;;;2.60;;
17743;SDS011;8994;48.934;9.526;2022-07-06T08:05:49;3.33;;;3.03;;
17743;SDS011;8994;48.934;9.526;2022-07-06T08:08:15;5.43;;;2.43;;
17743;SDS011;8994;48.934;9.526;2022-07-06T08:10:41;3.33;;;2.13;;
17743;SDS011;8994;48.934;9.526;2022-07-06T08:13:07;5.50;;;2.80;;
17743;SDS011;8994;48.934;9.526;2022-07-06T08:15:33;5.67;;;2.50;;
17743;SDS011;8994;48.934;9.526;2022-07-06T08:17:59;5.63;;;2.40;;
17743;SDS011;8994;48.934;9.526;2022-07-06T08:20:25;4.30;;;2.63;;
17743;SDS011;8994;48.934;9.526;2022-07-06T08:22:51;4.37;;;2.57;;
17743;SDS011;8994;48.934;9.526;2022-07-06T08:25:17;9.63;;;2.80;;
17743;SDS011;8994;48.934;9.526;2022-07-06T08:27:43;2.57;;;2.37;;
17743;SDS011;8994;48.934;9.526;2022-07-06T08:30:09;3.37;;;2.40;;
17743;SDS011;8994;48.934;9.526;2022-07-06T08:32:42;5.33;;;2.20;;
17743;SDS011;8994;48.934;9.526;2022-07-06T08:35:08;2.57;;;2.33;;
17743;SDS011;8994;48.934;9.526;2022-07-06T08:37:34;4.80;;;2.43;;
17743;SDS011;8994;48.934;9.526;2022-07-06T08:40:00;10.63;;;2.37;;
17743;SDS011;8994;48.934;9.526;2022-07-06T08:42:29;4.30;;;2.10;;
17743;SDS011;8994;48.934;9.526;2022-07-06T08:44:58;4.13;;;2.20;;
17743;SDS011;8994;48.934;9.526;2022-07-06T08:47:26;2.70;;;2.10;;
17743;SDS011;8994;48.934;9.526;2022-07-06T08:49:52;3.57;;;2.33;;
17743;SDS011;8994;48.934;9.526;2022-07-06T08:52:19;3.03;;;2.30;;
17743;SDS011;8994;48.934;9.526;2022-07-06T08:54:46;3.87;;;2.40;;
17743;SDS011;8994;48.934;9.526;2022-07-06T08:57:12;4.93;;;4.33;;
17743;SDS011;8994;48.934;9.526;2022-07-06T08:59:38;7.00;;;2.93;;
17743;SDS011;8994;48.934;9.526;2022-07-06T09:02:04;5.30;;;2.40;;
17743;SDS011;8994;48.934;9.526;2022-07-06T09:04:32;7.67;;;2.50;;
17743;SDS011;8994;48.934;9.526;2022-07-06T09:06:59;2.27;;;2.17;;
17743;SDS011;8994;48.934;9.526;2022-07-06T09:09:24;3.37;;;2.33;;
17743;SDS011;8994;48.934;9.526;2022-07-06T09:11:51;2.67;;;2.47;;
17743;SDS011;8994;48.934;9.526;2022-07-06T09:14:17;3.67;;;2.87;;
17743;SDS011;8994;48.934;9.526;2022-07-06T09:16:44;2.27;;;2.07;;
17743;SDS011;8994;48.934;9.526;2022-07-06T09:19:11;9.83;;;2.77;;
17743;SDS011;8994;48.934;9.526;2022-07-06T09:21:38;3.03;;;2.53;;
17743;SDS011;8994;48.934;9.526;2022-07-06T09:24:07;5.37;;;2.27;;
17743;SDS011;8994;48.934;9.526;2022-07-06T09:26:34;2.90;;;2.37;;
17743;SDS011;8994;48.934;9.526;2022-07-06T09:29:00;3.03;;;2.50;;
17743;SDS011;8994;48.934;9.526;2022-07-06T09:31:26;2.50;;;1.93;;
17743;SDS011;8994;48.934;9.526;2022-07-06T09:33:56;2.80;;;2.10;;
17743;SDS011;8994;48.934;9.526;2022-07-06T09:36:46;2.33;;;2.10;;
17743;SDS011;8994;48.934;9.526;2022-07-06T09:41:47;3.50;;;2.37;;
17743;SDS011;8994;48.934;9.526;2022-07-06T09:44:24;3.07;;;2.17;;
17743;SDS011;8994;48.934;9.526;2022-07-06T09:46:59;2.33;;;2.13;;
17743;SDS011;8994;48.934;9.526;2022-07-06T09:49:26;3.17;;;2.63;;
17743;SDS011;8994;48.934;9.526;2022-07-06T09:51:55;3.70;;;2.67;;
17743;SDS011;8994;48.934;9.526;2022-07-06T09:54:22;6.33;;;2.40;;
17743;SDS011;8994;48.934;9.526;2022-07-06T09:56:49;3.90;;;2.30;;
17743;SDS011;8994;48.934;9.526;2022-07-06T09:59:25;6.40;;;2.70;;
17743;SDS011;8994;48.934;9.526;2022-07-06T10:01:55;3.40;;;2.50;;
17743;SDS011;8994;48.934;9.526;2022-07-06T10:04:23;4.23;;;2.43;;
17743;SDS011;8994;48.934;9.526;2022-07-06T10:06:50;5.80;;;2.47;;
17743;SDS011;8994;48.934;9.526;2022-07-06T10:09:17;2.47;;;2.37;;
17743;SDS011;8994;48.934;9.526;2022-07-06T10:11:48;6.30;;;2.80;;
17743;SDS011;8994;48.934;9.526;2022-07-06T10:14:25;3.33;;;2.53;;
17743;SDS011;8994;48.934;9.526;2022-07-06T10:16:55;2.63;;;2.37;;
17743;SDS011;8994;48.934;9.526;2022-07-06T10:19:22;2.73;;;2.30;;
17743;SDS011;8994;48.934;9.526;2022-07-06T10:21:48;6.57;;;2.40;;
17743;SDS011;8994;48.934;9.526;2022-07-06T10:24:16;2.60;;;2.37;;
17743;SDS011;8994;48.934;9.526;2022-07-06T10:26:44;2.40;;;2.30;;
17743;SDS011;8994;48.934;9.526;2022-07-06T10:29:11;4.13;;;2.00;;
17743;SDS011;8994;48.934;9.526;2022-07-06T10:31:38;2.87;;;2.33;;
17743;SDS011;8994;48.934;9.526;2022-07-06T10:34:06;3.57;;;2.63;;
17743;SDS011;8994;48.934;9.526;2022-07-06T10:36:42;2.10;;;2.00;;
17743;SDS011;8994;48.934;9.526;2022-07-06T10:39:09;3.90;;;2.50;;
17743;SDS011;8994;48.934;9.526;2022-07-06T10:41:55;4.37;;;2.33;;
17743;SDS011;8994;48.934;9.526;2022-07-06T10:44:22;5.60;;;2.37;;
17743;SDS011;8994;48.934;9.526;2022-07-06T10:46:55;2.27;;;1.90;;
17743;SDS011;8994;48.934;9.526;2022-07-06T10:49:24;6.90;;;2.77;;
17743;SDS011;8994;48.934;9.526;2022-07-06T10:51:51;2.03;;;1.93;;
17743;SDS011;8994;48.934;9.526;2022-07-06T10:54:18;6.47;;;2.47;;
17743;SDS011;8994;48.934;9.526;2022-07-06T10:56:48;3.70;;;2.20;;
17743;SDS011;8994;48.934;9.526;2022-07-06T10:59:19;4.70;;;2.27;;
17743;SDS011;8994;48.934;9.526;2022-07-06T11:02:33;3.27;;;2.40;;
17743;SDS011;8994;48.934;9.526;2022-07-06T11:04:45;2.23;;;1.87;;
17743;SDS011;8994;48.934;9.526;2022-07-06T11:07:16;5.10;;;2.60;;
17743;SDS011;8994;48.934;9.526;2022-07-06T11:09:56;3.60;;;1.90;;
17743;SDS011;8994;48.934;9.526;2022-07-06T11:12:23;2.27;;;2.17;;
17743;SDS011;8994;48.934;9.526;2022-07-06T11:14:50;2.77;;;1.90;;
17743;SDS011;8994;48.934;9.526;2022-07-06T11:17:17;6.83;;;2.40;;
17743;SDS011;8994;48.934;9.526;2022-07-06T11:19:59;2.83;;;2.20;;
17743;SDS011;8994;48.934;9.526;2022-07-06T11:22:38;3.53;;;2.20;;
17743;SDS011;8994;48.934;9.526;2022-07-06T11:25:04;3.73;;;2.20;;
17743;SDS011;8994;48.934;9.526;2022-07-06T11:27:31;4.10;;;2.23;;
17743;SDS011;8994;48.934;9.526;2022-07-06T11:29:59;3.43;;;2.10;;
17743;SDS011;8994;48.934;9.526;2022-07-06T11:32:25;2.57;;;2.00;;
17743;SDS011;8994;48.934;9.526;2022-07-06T11:34:52;1.90;;;1.80;;
17743;SDS011;8994;48.934;9.526;2022-07-06T11:37:18;6.10;;;2.10;;
17743;SDS011;8994;48.934;9.526;2022-07-06T11:39:45;5.13;;;2.20;;
17743;SDS011;8994;48.934;9.526;2022-07-06T11:42:13;4.43;;;2.00;;
17743;SDS011;8994;48.934;9.526;2022-07-06T11:44:40;2.67;;;2.10;;
17743;SDS011;8994;48.934;9.526;2022-07-06T11:47:07;3.30;;;2.40;;
17743;SDS011;8994;48.934;9.526;2022-07-06T11:49:34;4.57;;;2.07;;
17743;SDS011;8994;48.934;9.526;2022-07-06T11:52:05;6.37;;;2.50;;
17743;SDS011;8994;48.934;9.526;2022-07-06T11:54:32;5.83;;;2.00;;
17743;SDS011;8994;48.934;9.526;2022-07-06T11:56:58;6.03;;;2.40;;
17743;SDS011;8994;48.934;9.526;2022-07-06T11:59:26;2.20;;;2.00;;
17743;SDS011;8994;48.934;9.526;2022-07-06T12:02:03;2.37;;;2.00;;
17743;SDS011;8994;48.934;9.526;2022-07-06T12:04:31;4.83;;;2.03;;
17743;SDS011;8994;48.934;9.526;2022-07-06T12:07:01;2.40;;;2.07;;
17743;SDS011;8994;48.934;9.526;2022-07-06T12:09:33;2.60;;;2.40;;
17743;SDS011;8994;48.934;9.526;2022-07-06T12:12:00;6.30;;;2.50;;
17743;SDS011;8994;48.934;9.526;2022-07-06T12:14:28;6.80;;;2.00;;
17743;SDS011;8994;48.934;9.526;2022-07-06T12:16:54;6.33;;;2.27;;
17743;SDS011;8994;48.934;9.526;2022-07-06T12:19:23;3.60;;;2.20;;
17743;SDS011;8994;48.934;9.526;2022-07-06T12:21:50;3.77;;;2.00;;
17743;SDS011;8994;48.934;9.526;2022-07-06T12:24:17;5.50;;;2.30;;
17743;SDS011;8994;48.934;9.526;2022-07-06T12:26:47;2.37;;;2.10;;
17743;SDS011;8994;48.934;9.526;2022-07-06T12:29:14;5.70;;;2.20;;
17743;SDS011;8994;48.934;9.526;2022-07-06T12:31:48;2.00;;;1.90;;
17743;SDS011;8994;48.934;9.526;2022-07-06T12:39:20;5.70;;;2.30;;
17743;SDS011;8994;48.934;9.526;2022-07-06T12:41:53;6.60;;;2.40;;
17743;SDS011;8994;48.934;9.526;2022-07-06T12:44:27;3.60;;;2.07;;
17743;SDS011;8994;48.934;9.526;2022-07-06T12:47:03;3.40;;;2.40;;
17743;SDS011;8994;48.934;9.526;2022-07-06T12:52:10;2.67;;;2.20;;
17743;SDS011;8994;48.934;9.526;2022-07-06T12:54:41;3.10;;;2.27;;
17743;SDS011;8994;48.934;9.526;2022-07-06T13:02:21;4.97;;;2.30;;
17743;SDS011;8994;48.934;9.526;2022-07-06T13:05:02;2.47;;;2.20;;
17743;SDS011;8994;48.934;9.526;2022-07-06T13:07:30;5.90;;;2.20;;
17743;SDS011;8994;48.934;9.526;2022-07-06T13:10:00;2.83;;;2.00;;
17743;SDS011;8994;48.934;9.526;2022-07-06T13:12:27;2.17;;;2.00;;
17743;SDS011;8994;48.934;9.526;2022-07-06T13:14:53;2.53;;;2.33;;
17743;SDS011;8994;48.934;9.526;2022-07-06T13:17:19;3.87;;;2.10;;
17743;SDS011;8994;48.934;9.526;2022-07-06T13:19:44;3.43;;;2.40;;
17743;SDS011;8994;48.934;9.526;2022-07-06T13:22:10;5.03;;;2.57;;
17743;SDS011;8994;48.934;9.526;2022-07-06T13:24:36;4.87;;;2.17;;
17743;SDS011;8994;48.934;9.526;2022-07-06T13:27:02;2.70;;;2.20;;
17743;SDS011;8994;48.934;9.526;2022-07-06T13:29:28;5.00;;;2.10;;
17743;SDS011;8994;48.934;9.526;2022-07-06T13:31:54;4.67;;;2.27;;
17743;SDS011;8994;48.934;9.526;2022-07-06T13:34:20;4.40;;;2.07;;
17743;SDS011;8994;48.934;9.526;2022-07-06T13:36:46;3.70;;;2.20;;
17743;SDS011;8994;48.934;9.526;2022-07-06T13:39:12;11.20;;;2.27;;
17743;SDS011;8994;48.934;9.526;2022-07-06T13:41:38;4.53;;;2.23;;
17743;SDS011;8994;48.934;9.526;2022-07-06T13:44:03;3.63;;;1.80;;
17743;SDS011;8994;48.934;9.526;2022-07-06T13:46:30;3.80;;;1.90;;
17743;SDS011;8994;48.934;9.526;2022-07-06T13:48:56;3.10;;;1.80;;
17743;SDS011;8994;48.934;9.526;2022-07-06T13:51:23;5.10;;;2.20;;
17743;SDS011;8994;48.934;9.526;2022-07-06T13:53:49;7.03;;;2.00;;
17743;SDS011;8994;48.934;9.526;2022-07-06T13:56:16;5.43;;;2.10;;
17743;SDS011;8994;48.934;9.526;2022-07-06T13:58:42;5.87;;;2.10;;
17743;SDS011;8994;48.934;9.526;2022-07-06T14:01:08;3.40;;;1.77;;
17743;SDS011;8994;48.934;9.526;2022-07-06T14:03:34;2.70;;;1.90;;
17743;SDS011;8994;48.934;9.526;2022-07-06T14:06:02;2.87;;;1.80;;
17743;SDS011;8994;48.934;9.526;2022-07-06T14:08:29;4.20;;;1.60;;
17743;SDS011;8994;48.934;9.526;2022-07-06T14:10:55;2.10;;;1.80;;
17743;SDS011;8994;48.934;9.526;2022-07-06T14:13:21;3.10;;;1.83;;
17743;SDS011;8994;48.934;9.526;2022-07-06T14:15:48;2.53;;;1.60;;
17743;SDS011;8994;48.934;9.526;2022-07-06T14:18:14;3.90;;;1.90;;
17743;SDS011;8994;48.934;9.526;2022-07-06T14:20:42;4.90;;;1.57;;
17743;SDS011;8994;48.934;9.526;2022-07-06T14:23:16;3.33;;;1.70;;
17743;SDS011;8994;48.934;9.526;2022-07-06T14:25:42;2.20;;;1.80;;
17743;SDS011;8994;48.934;9.526;2022-07-06T14:28:09;1.60;;;1.50;;
17743;SDS011;8994;48.934;9.526;2022-07-06T14:30:36;3.40;;;1.67;;
17743;SDS011;8994;48.934;9.526;2022-07-06T14:33:06;4.67;;;1.87;;
17743;SDS011;8994;48.934;9.526;2022-07-06T14:35:36;4.83;;;2.00;;
17743;SDS011;8994;48.934;9.526;2022-07-06T14:38:04;3.30;;;1.93;;
17743;SDS011;8994;48.934;9.526;2022-07-06T14:40:31;3.47;;;1.60;;
17743;SDS011;8994;48.934;9.526;2022-07-06T14:42:58;2.60;;;1.60;;
17743;SDS011;8994;48.934;9.526;2022-07-06T14:45:24;3.10;;;1.60;;
17743;SDS011;8994;48.934;9.526;2022-07-06T14:47:50;5.23;;;1.47;;
17743;SDS011;8994;48.934;9.526;2022-07-06T14:50:16;3.20;;;1.63;;
17743;SDS011;8994;48.934;9.526;2022-07-06T14:52:42;2.20;;;1.50;;
17743;SDS011;8994;48.934;9.526;2022-07-06T14:55:08;1.50;;;1.40;;
17743;SDS011;8994;48.934;9.526;2022-07-06T14:57:34;2.27;;;1.70;;
17743;SDS011;8994;48.934;9.526;2022-07-06T15:00:00;1.93;;;1.67;;
17743;SDS011;8994;48.934;9.526;2022-07-06T15:02:25;3.27;;;1.27;;
17743;SDS011;8994;48.934;9.526;2022-07-06T15:04:51;3.60;;;1.63;;
17743;SDS011;8994;48.934;9.526;2022-07-06T15:07:17;3.77;;;1.60;;
17743;SDS011;8994;48.934;9.526;2022-07-06T15:09:43;1.33;;;1.20;;
17743;SDS011;8994;48.934;9.526;2022-07-06T15:12:09;3.47;;;1.27;;
17743;SDS011;8994;48.934;9.526;2022-07-06T15:14:35;2.53;;;1.50;;